sensor_id;sensor_type;location;lat;lon;timestamp;pressure;altitude;pressure_sealevel;temperature;humidity
55070;BME280;40967;52.070;8.596;2024-02-14T00:00:35;100531.50;;;6.22;100.00
55070;BME280;40967;52.070;8.596;2024-02-14T00:03:02;100522.13;;;6.25;100.00
55070;BME280;40967;52.070;8.596;2024-02-14T00:05:30;100520.81;;;6.27;100.00
55070;BME280;40967;52.070;8.596;2024-02-14T00:07:56;100510.88;;;6.28;100.00
55070;BME280;40967;52.070;8.596;2024-02-14T00:10:23;100501.41;;;6.25;100.00
55070;BME280;40967;52.070;8.596;2024-02-14T00:12:49;100513.91;;;6.31;100.00
55070;BME280;40967;52.070;8.596;2024-02-14T00:15:17;100507.69;;;6.31;100.00
55070;BME280;40967;52.070;8.596;2024-02-14T00:17:43;100492.25;;;6.26;100.00
55070;BME280;40967;52.070;8.596;2024-02-14T00:20:10;100494.00;;;6.32;100.00
55070;BME280;40967;52.070;8.596;2024-02-14T00:22:39;100504.94;;;6.42;100.00
55070;BME280;40967;52.070;8.596;2024-02-14T00:25:06;100493.34;;;6.42;100.00
55070;BME280;40967;52.070;8.596;2024-02-14T00:27:34;100500.38;;;6.43;100.00
55070;BME280;40967;52.070;8.596;2024-02-14T00:30:01;100500.47;;;6.48;100.00
55070;BME280;40967;52.070;8.596;2024-02-14T00:32:28;100488.88;;;6.47;100.00
55070;BME280;40967;52.070;8.596;2024-02-14T00:34:55;100489.53;;;6.54;100.00
55070;BME280;40967;52.070;8.596;2024-02-14T00:37:22;100493.38;;;6.58;100.00
55070;BME280;40967;52.070;8.596;2024-02-14T00:39:49;100471.50;;;6.55;100.00
55070;BME280;40967;52.070;8.596;2024-02-14T00:42:17;100479.66;;;6.60;100.00
55070;BME280;40967;52.070;8.596;2024-02-14T00:44:43;100486.03;;;6.70;100.00
55070;BME280;40967;52.070;8.596;2024-02-14T00:47:10;100484.47;;;6.74;100.00
55070;BME280;40967;52.070;8.596;2024-02-14T00:49:36;100442.97;;;6.59;100.00
55070;BME280;40967;52.070;8.596;2024-02-14T00:52:04;100462.50;;;6.82;100.00
55070;BME280;40967;52.070;8.596;2024-02-14T00:54:32;100431.72;;;6.62;100.00
55070;BME280;40967;52.070;8.596;2024-02-14T00:56:59;100458.22;;;6.86;100.00
55070;BME280;40967;52.070;8.596;2024-02-14T00:59:26;100454.22;;;6.89;100.00
55070;BME280;40967;52.070;8.596;2024-02-14T01:01:52;100430.72;;;6.84;100.00
55070;BME280;40967;52.070;8.596;2024-02-14T01:04:19;100446.03;;;7.01;100.00
55070;BME280;40967;52.070;8.596;2024-02-14T01:06:46;100430.78;;;6.89;100.00
55070;BME280;40967;52.070;8.596;2024-02-14T01:09:14;100451.44;;;7.01;100.00
55070;BME280;40967;52.070;8.596;2024-02-14T01:11:42;100410.25;;;6.88;100.00
55070;BME280;40967;52.070;8.596;2024-02-14T01:14:10;100447.81;;;7.12;100.00
55070;BME280;40967;52.070;8.596;2024-02-14T01:16:42;100440.56;;;7.12;100.00
55070;BME280;40967;52.070;8.596;2024-02-14T01:19:09;100433.50;;;7.11;100.00
55070;BME280;40967;52.070;8.596;2024-02-14T01:21:36;100442.50;;;7.17;100.00
55070;BME280;40967;52.070;8.596;2024-02-14T01:24:03;100440.38;;;7.19;100.00
55070;BME280;40967;52.070;8.596;2024-02-14T01:26:31;100434.22;;;7.23;100.00
55070;BME280;40967;52.070;8.596;2024-02-14T01:28:58;100432.34;;;7.24;100.00
55070;BME280;40967;52.070;8.596;2024-02-14T01:31:27;100437.47;;;7.25;100.00
55070;BME280;40967;52.070;8.596;2024-02-14T01:33:55;100432.66;;;7.27;100.00
55070;BME280;40967;52.070;8.596;2024-02-14T01:36:22;100420.47;;;7.25;100.00
55070;BME280;40967;52.070;8.596;2024-02-14T01:38:51;100437.53;;;7.30;100.00
55070;BME280;40967;52.070;8.596;2024-02-14T01:41:17;100418.91;;;7.29;100.00
55070;BME280;40967;52.070;8.596;2024-02-14T01:43:44;100413.75;;;7.27;100.00
55070;BME280;40967;52.070;8.596;2024-02-14T01:46:12;100417.28;;;7.28;100.00
55070;BME280;40967;52.070;8.596;2024-02-14T01:48:41;100410.25;;;7.27;100.00
55070;BME280;40967;52.070;8.596;2024-02-14T01:51:09;100398.75;;;7.15;100.00
55070;BME280;40967;52.070;8.596;2024-02-14T01:53:37;100410.75;;;7.24;100.00
55070;BME280;40967;52.070;8.596;2024-02-14T01:56:07;100399.81;;;7.14;100.00
55070;BME280;40967;52.070;8.596;2024-02-14T01:58:34;100408.00;;;7.19;100.00
55070;BME280;40967;52.070;8.596;2024-02-14T02:01:03;100403.09;;;7.16;100.00
55070;BME280;40967;52.070;8.596;2024-02-14T02:03:30;100381.94;;;7.08;100.00
55070;BME280;40967;52.070;8.596;2024-02-14T02:06:02;100398.19;;;7.13;100.00
55070;BME280;40967;52.070;8.596;2024-02-14T02:08:29;100384.63;;;7.08;100.00
55070;BME280;40967;52.070;8.596;2024-02-14T02:10:56;100395.16;;;7.09;100.00
55070;BME280;40967;52.070;8.596;2024-02-14T02:13:23;100387.00;;;7.04;100.00
55070;BME280;40967;52.070;8.596;2024-02-14T02:15:51;100396.00;;;7.10;100.00
55070;BME280;40967;52.070;8.596;2024-02-14T02:18:18;100394.84;;;7.06;100.00
55070;BME280;40967;52.070;8.596;2024-02-14T02:20:45;100386.22;;;7.04;100.00
55070;BME280;40967;52.070;8.596;2024-02-14T02:23:13;100397.06;;;7.09;100.00
55070;BME280;40967;52.070;8.596;2024-02-14T02:25:40;100377.94;;;7.10;100.00
55070;BME280;40967;52.070;8.596;2024-02-14T02:28:07;100383.25;;;7.05;100.00
55070;BME280;40967;52.070;8.596;2024-02-14T02:30:36;100371.19;;;7.13;100.00
55070;BME280;40967;52.070;8.596;2024-02-14T02:33:03;100363.94;;;7.13;100.00
55070;BME280;40967;52.070;8.596;2024-02-14T02:35:30;100361.69;;;7.05;100.00
55070;BME280;40967;52.070;8.596;2024-02-14T02:37:56;100372.84;;;7.14;100.00
55070;BME280;40967;52.070;8.596;2024-02-14T02:40:28;100358.97;;;7.05;100.00
55070;BME280;40967;52.070;8.596;2024-02-14T02:42:54;100359.78;;;7.06;100.00
55070;BME280;40967;52.070;8.596;2024-02-14T02:45:21;100355.41;;;7.00;100.00
55070;BME280;40967;52.070;8.596;2024-02-14T02:47:48;100363.09;;;7.13;100.00
55070;BME280;40967;52.070;8.596;2024-02-14T02:50:16;100349.00;;;7.06;100.00
55070;BME280;40967;52.070;8.596;2024-02-14T02:52:43;100365.06;;;7.17;100.00
55070;BME280;40967;52.070;8.596;2024-02-14T02:55:09;100367.78;;;7.17;100.00
55070;BME280;40967;52.070;8.596;2024-02-14T02:57:38;100357.22;;;7.16;100.00
55070;BME280;40967;52.070;8.596;2024-02-14T03:00:06;100343.13;;;7.09;100.00
55070;BME280;40967;52.070;8.596;2024-02-14T03:02:34;100346.44;;;7.16;100.00
55070;BME280;40967;52.070;8.596;2024-02-14T03:05:06;100349.94;;;7.16;100.00
55070;BME280;40967;52.070;8.596;2024-02-14T03:07:35;100348.06;;;7.17;100.00
55070;BME280;40967;52.070;8.596;2024-02-14T03:10:02;100338.81;;;7.13;100.00
55070;BME280;40967;52.070;8.596;2024-02-14T03:12:29;100343.13;;;7.09;100.00
55070;BME280;40967;52.070;8.596;2024-02-14T03:14:59;100345.66;;;7.20;100.00
55070;BME280;40967;52.070;8.596;2024-02-14T03:17:26;100352.47;;;7.23;100.00
55070;BME280;40967;52.070;8.596;2024-02-14T03:19:54;100346.00;;;7.24;100.00
55070;BME280;40967;52.070;8.596;2024-02-14T03:22:21;100322.63;;;7.13;100.00
55070;BME280;40967;52.070;8.596;2024-02-14T03:24:48;100341.16;;;7.26;100.00
55070;BME280;40967;52.070;8.596;2024-02-14T03:27:14;100325.41;;;7.18;100.00
55070;BME280;40967;52.070;8.596;2024-02-14T03:29:42;100341.16;;;7.26;100.00
55070;BME280;40967;52.070;8.596;2024-02-14T03:32:10;100341.97;;;7.26;100.00
55070;BME280;40967;52.070;8.596;2024-02-14T03:34:37;100339.03;;;7.28;100.00
55070;BME280;40967;52.070;8.596;2024-02-14T03:37:06;100343.34;;;7.29;100.00
55070;BME280;40967;52.070;8.596;2024-02-14T03:39:33;100326.59;;;7.27;100.00
55070;BME280;40967;52.070;8.596;2024-02-14T03:41:59;100336.88;;;7.30;100.00
55070;BME280;40967;52.070;8.596;2024-02-14T03:44:27;100320.31;;;7.21;100.00
55070;BME280;40967;52.070;8.596;2024-02-14T03:46:54;100323.88;;;7.27;100.00
55070;BME280;40967;52.070;8.596;2024-02-14T03:49:22;100316.31;;;7.24;100.00
55070;BME280;40967;52.070;8.596;2024-02-14T03:51:51;100338.25;;;7.32;100.00
55070;BME280;40967;52.070;8.596;2024-02-14T03:54:19;100331.25;;;7.31;100.00
55070;BME280;40967;52.070;8.596;2024-02-14T03:56:46;100324.16;;;7.25;100.00
55070;BME280;40967;52.070;8.596;2024-02-14T03:59:14;100335.31;;;7.34;100.00
55070;BME280;40967;52.070;8.596;2024-02-14T04:01:43;100325.34;;;7.34;100.00
55070;BME280;40967;52.070;8.596;2024-02-14T04:04:10;100344.22;;;7.34;100.00
55070;BME280;40967;52.070;8.596;2024-02-14T04:06:38;100315.78;;;7.27;100.00
55070;BME280;40967;52.070;8.596;2024-02-14T04:09:05;100318.75;;;7.25;100.00
55070;BME280;40967;52.070;8.596;2024-02-14T04:11:32;100333.75;;;7.38;100.00
55070;BME280;40967;52.070;8.596;2024-02-14T04:13:58;100346.72;;;7.41;100.00
55070;BME280;40967;52.070;8.596;2024-02-14T04:16:25;100339.13;;;7.38;100.00
55070;BME280;40967;52.070;8.596;2024-02-14T04:18:52;100339.13;;;7.38;100.00
55070;BME280;40967;52.070;8.596;2024-02-14T04:21:20;100319.00;;;7.24;100.00
55070;BME280;40967;52.070;8.596;2024-02-14T04:23:50;100327.72;;;7.31;100.00
55070;BME280;40967;52.070;8.596;2024-02-14T04:26:19;100330.47;;;7.36;100.00
55070;BME280;40967;52.070;8.596;2024-02-14T04:28:46;100330.09;;;7.27;100.00
55070;BME280;40967;52.070;8.596;2024-02-14T04:31:13;100334.00;;;7.36;100.00
55070;BME280;40967;52.070;8.596;2024-02-14T04:33:40;100333.47;;;7.39;100.00
55070;BME280;40967;52.070;8.596;2024-02-14T04:36:06;100323.50;;;7.40;100.00
55070;BME280;40967;52.070;8.596;2024-02-14T04:38:33;100325.69;;;7.43;100.00
55070;BME280;40967;52.070;8.596;2024-02-14T04:41:01;100329.47;;;7.42;100.00
55070;BME280;40967;52.070;8.596;2024-02-14T04:43:28;100326.53;;;7.43;100.00
55070;BME280;40967;52.070;8.596;2024-02-14T04:45:54;100324.63;;;7.44;100.00
55070;BME280;40967;52.070;8.596;2024-02-14T04:48:21;100323.56;;;7.45;100.00
55070;BME280;40967;52.070;8.596;2024-02-14T04:50:47;100331.16;;;7.48;100.00
55070;BME280;40967;52.070;8.596;2024-02-14T04:53:14;100333.59;;;7.49;100.00
55070;BME280;40967;52.070;8.596;2024-02-14T04:55:42;100323.03;;;7.48;100.00
55070;BME280;40967;52.070;8.596;2024-02-14T04:58:10;100328.50;;;7.53;100.00
55070;BME280;40967;52.070;8.596;2024-02-14T05:00:37;100320.91;;;7.50;100.00
55070;BME280;40967;52.070;8.596;2024-02-14T05:03:05;100331.25;;;7.58;100.00
55070;BME280;40967;52.070;8.596;2024-02-14T05:05:31;100284.91;;;7.39;100.00
55070;BME280;40967;52.070;8.596;2024-02-14T05:07:59;100326.47;;;7.65;100.00
55070;BME280;40967;52.070;8.596;2024-02-14T05:10:25;100303.94;;;7.54;100.00
55070;BME280;40967;52.070;8.596;2024-02-14T05:12:52;100322.72;;;7.66;100.00
55070;BME280;40967;52.070;8.596;2024-02-14T05:15:20;100313.53;;;7.67;100.00
55070;BME280;40967;52.070;8.596;2024-02-14T05:17:47;100316.78;;;7.69;100.00
55070;BME280;40967;52.070;8.596;2024-02-14T05:20:15;100308.06;;;7.62;100.00
55070;BME280;40967;52.070;8.596;2024-02-14T05:22:45;100304.81;;;7.60;100.00
55070;BME280;40967;52.070;8.596;2024-02-14T05:25:12;100325.16;;;7.67;100.00
55070;BME280;40967;52.070;8.596;2024-02-14T05:27:39;100318.09;;;7.66;100.00
55070;BME280;40967;52.070;8.596;2024-02-14T05:30:06;100328.41;;;7.69;100.00
55070;BME280;40967;52.070;8.596;2024-02-14T05:32:35;100304.50;;;7.56;100.00
55070;BME280;40967;52.070;8.596;2024-02-14T05:35:01;100332.72;;;7.70;100.00
55070;BME280;40967;52.070;8.596;2024-02-14T05:37:31;100329.22;;;7.70;100.00
55070;BME280;40967;52.070;8.596;2024-02-14T05:39:58;100335.13;;;7.67;100.00
55070;BME280;40967;52.070;8.596;2024-02-14T05:42:25;100327.44;;;7.54;100.00
55070;BME280;40967;52.070;8.596;2024-02-14T05:44:53;100344.56;;;7.64;100.00
55070;BME280;40967;52.070;8.596;2024-02-14T05:47:19;100336.38;;;7.59;100.00
55070;BME280;40967;52.070;8.596;2024-02-14T05:49:47;100337.53;;;7.63;100.00
55070;BME280;40967;52.070;8.596;2024-02-14T05:52:20;100316.09;;;7.52;100.00
55070;BME280;40967;52.070;8.596;2024-02-14T05:54:47;100336.78;;;7.68;100.00
55070;BME280;40967;52.070;8.596;2024-02-14T05:57:14;100336.78;;;7.68;100.00
55070;BME280;40967;52.070;8.596;2024-02-14T05:59:40;100333.50;;;7.66;100.00
55070;BME280;40967;52.070;8.596;2024-02-14T06:02:07;100329.47;;;7.68;100.00
55070;BME280;40967;52.070;8.596;2024-02-14T06:04:35;100287.03;;;7.37;100.00
55070;BME280;40967;52.070;8.596;2024-02-14T06:07:03;100348.13;;;7.70;100.00
55070;BME280;40967;52.070;8.596;2024-02-14T06:09:32;100335.13;;;7.67;100.00
55070;BME280;40967;52.070;8.596;2024-02-14T06:11:58;100339.47;;;7.68;100.00
55070;BME280;40967;52.070;8.596;2024-02-14T06:14:25;100339.69;;;7.66;100.00
55070;BME280;40967;52.070;8.596;2024-02-14T06:16:51;100354.91;;;7.72;100.00
55070;BME280;40967;52.070;8.596;2024-02-14T06:19:18;100350.84;;;7.75;100.00
55070;BME280;40967;52.070;8.596;2024-02-14T06:21:44;100338.09;;;7.65;100.00
55070;BME280;40967;52.070;8.596;2024-02-14T06:24:12;100350.94;;;7.80;100.00
55070;BME280;40967;52.070;8.596;2024-02-14T06:26:39;100355.78;;;7.78;100.00
55070;BME280;40967;52.070;8.596;2024-02-14T06:29:05;100368.19;;;7.79;100.00
55070;BME280;40967;52.070;8.596;2024-02-14T06:31:32;100363.09;;;7.82;100.00
55070;BME280;40967;52.070;8.596;2024-02-14T06:33:58;100365.50;;;7.79;100.00
55070;BME280;40967;52.070;8.596;2024-02-14T06:36:25;100369.31;;;7.83;100.00
55070;BME280;40967;52.070;8.596;2024-02-14T06:38:52;100373.66;;;7.84;100.00
55070;BME280;40967;52.070;8.596;2024-02-14T06:41:20;100372.34;;;7.86;100.00
55070;BME280;40967;52.070;8.596;2024-02-14T06:43:46;100381.00;;;7.88;100.00
55070;BME280;40967;52.070;8.596;2024-02-14T06:46:13;100376.16;;;7.90;100.00
55070;BME280;40967;52.070;8.596;2024-02-14T06:48:40;100359.56;;;7.82;100.00
55070;BME280;40967;52.070;8.596;2024-02-14T06:51:06;100385.63;;;7.93;100.00
55070;BME280;40967;52.070;8.596;2024-02-14T06:53:33;100383.50;;;7.95;100.00
55070;BME280;40967;52.070;8.596;2024-02-14T06:56:01;100387.81;;;7.96;100.00
55070;BME280;40967;52.070;8.596;2024-02-14T06:58:28;100386.75;;;7.97;100.00
55070;BME280;40967;52.070;8.596;2024-02-14T07:00:55;100390.03;;;7.99;100.00
55070;BME280;40967;52.070;8.596;2024-02-14T07:03:22;100383.50;;;7.95;100.00
55070;BME280;40967;52.070;8.596;2024-02-14T07:05:48;100394.34;;;8.00;100.00
55070;BME280;40967;52.070;8.596;2024-02-14T07:08:16;100392.50;;;8.05;100.00
55070;BME280;40967;52.070;8.596;2024-02-14T07:10:43;100397.09;;;8.05;100.00
55070;BME280;40967;52.070;8.596;2024-02-14T07:13:09;100405.75;;;8.07;100.00
55070;BME280;40967;52.070;8.596;2024-02-14T07:15:37;100393.50;;;7.99;100.00
55070;BME280;40967;52.070;8.596;2024-02-14T07:18:04;100397.13;;;8.10;100.00
55070;BME280;40967;52.070;8.596;2024-02-14T07:20:33;100414.72;;;8.13;100.00
55070;BME280;40967;52.070;8.596;2024-02-14T07:23:00;100414.72;;;8.13;100.00
55070;BME280;40967;52.070;8.596;2024-02-14T07:25:27;100404.22;;;8.16;100.00
55070;BME280;40967;52.070;8.596;2024-02-14T07:27:53;100401.00;;;8.19;100.00
55070;BME280;40967;52.070;8.596;2024-02-14T07:30:20;100411.25;;;8.17;100.00
55070;BME280;40967;52.070;8.596;2024-02-14T07:32:48;100416.97;;;8.21;100.00
55070;BME280;40967;52.070;8.596;2024-02-14T07:35:16;100416.13;;;8.20;100.00
55070;BME280;40967;52.070;8.596;2024-02-14T07:37:42;100417.28;;;8.24;100.00
55070;BME280;40967;52.070;8.596;2024-02-14T07:40:10;100416.25;;;8.25;100.00
55070;BME280;40967;52.070;8.596;2024-02-14T07:42:37;100380.66;;;8.12;100.00
55070;BME280;40967;52.070;8.596;2024-02-14T07:45:04;100415.72;;;8.28;100.00
55070;BME280;40967;52.070;8.596;2024-02-14T07:47:31;100409.19;;;8.24;100.00
55070;BME280;40967;52.070;8.596;2024-02-14T07:49:58;100415.75;;;8.33;100.00
55070;BME280;40967;52.070;8.596;2024-02-14T07:52:25;100427.41;;;8.34;100.00
55070;BME280;40967;52.070;8.596;2024-02-14T07:54:52;100422.25;;;8.32;100.00
55070;BME280;40967;52.070;8.596;2024-02-14T07:57:20;100435.28;;;8.40;100.00
55070;BME280;40967;52.070;8.596;2024-02-14T07:59:46;100431.97;;;8.33;100.00
55070;BME280;40967;52.070;8.596;2024-02-14T08:02:13;100449.06;;;8.39;100.00
55070;BME280;40967;52.070;8.596;2024-02-14T08:04:40;100447.41;;;8.38;100.00
55070;BME280;40967;52.070;8.596;2024-02-14T08:07:08;100443.91;;;8.37;100.00
55070;BME280;40967;52.070;8.596;2024-02-14T08:09:35;100445.06;;;8.46;100.00
55070;BME280;40967;52.070;8.596;2024-02-14T08:12:02;100456.44;;;8.48;100.00
55070;BME280;40967;52.070;8.596;2024-02-14T08:14:28;100457.25;;;8.49;100.00
55070;BME280;40967;52.070;8.596;2024-02-14T08:16:55;100456.41;;;8.43;100.00
55070;BME280;40967;52.070;8.596;2024-02-14T08:19:21;100453.78;;;8.53;100.00
55070;BME280;40967;52.070;8.596;2024-02-14T08:21:48;100447.28;;;8.49;100.00
55070;BME280;40967;52.070;8.596;2024-02-14T08:24:16;100439.41;;;8.48;100.00
55070;BME280;40967;52.070;8.596;2024-02-14T08:26:43;100452.75;;;8.59;100.00
55070;BME280;40967;52.070;8.596;2024-02-14T08:29:09;100456.28;;;8.60;100.00
55070;BME280;40967;52.070;8.596;2024-02-14T08:31:36;100460.34;;;8.62;100.00
55070;BME280;40967;52.070;8.596;2024-02-14T08:34:03;100453.31;;;8.61;100.00
55070;BME280;40967;52.070;8.596;2024-02-14T08:36:30;100433.50;;;8.51;100.00
55070;BME280;40967;52.070;8.596;2024-02-14T08:38:59;100462.53;;;8.65;100.00
55070;BME280;40967;52.070;8.596;2024-02-14T08:41:26;100468.22;;;8.69;100.00
55070;BME280;40967;52.070;8.596;2024-02-14T08:43:54;100465.03;;;8.72;100.00
55070;BME280;40967;52.070;8.596;2024-02-14T08:46:20;100465.59;;;8.74;100.00
55070;BME280;40967;52.070;8.596;2024-02-14T08:48:48;100470.47;;;8.77;100.00
55070;BME280;40967;52.070;8.596;2024-02-14T08:51:17;100466.69;;;8.78;100.00
55070;BME280;40967;52.070;8.596;2024-02-14T08:53:45;100464.81;;;8.78;100.00
55070;BME280;40967;52.070;8.596;2024-02-14T08:56:12;100460.72;;;8.76;100.00
55070;BME280;40967;52.070;8.596;2024-02-14T08:58:40;100468.84;;;8.76;100.00
55070;BME280;40967;52.070;8.596;2024-02-14T09:01:06;100462.91;;;8.74;100.00
55070;BME280;40967;52.070;8.596;2024-02-14T09:03:34;100472.94;;;8.78;100.00
55070;BME280;40967;52.070;8.596;2024-02-14T09:06:00;100451.72;;;8.65;100.00
55070;BME280;40967;52.070;8.596;2024-02-14T09:08:28;100467.00;;;8.81;100.00
55070;BME280;40967;52.070;8.596;2024-02-14T09:10:57;100465.63;;;8.79;100.00
55070;BME280;40967;52.070;8.596;2024-02-14T09:13:24;100475.13;;;8.86;100.00
55070;BME280;40967;52.070;8.596;2024-02-14T09:15:54;100481.38;;;8.87;100.00
55070;BME280;40967;52.070;8.596;2024-02-14T09:18:20;100454.50;;;8.75;100.00
55070;BME280;40967;52.070;8.596;2024-02-14T09:20:47;100473.00;;;8.88;100.00
55070;BME280;40967;52.070;8.596;2024-02-14T09:23:15;100480.06;;;8.89;100.00
55070;BME280;40967;52.070;8.596;2024-02-14T09:25:45;100485.22;;;8.91;100.00
55070;BME280;40967;52.070;8.596;2024-02-14T09:28:12;100459.41;;;8.78;100.00
55070;BME280;40967;52.070;8.596;2024-02-14T09:30:39;100476.22;;;8.85;100.00
55070;BME280;40967;52.070;8.596;2024-02-14T09:33:07;100469.22;;;8.89;100.00
55070;BME280;40967;52.070;8.596;2024-02-14T09:35:34;100477.41;;;8.99;100.00
55070;BME280;40967;52.070;8.596;2024-02-14T09:38:03;100479.59;;;9.02;100.00
55070;BME280;40967;52.070;8.596;2024-02-14T09:40:31;100461.16;;;8.94;100.00
55070;BME280;40967;52.070;8.596;2024-02-14T09:43:01;100480.19;;;9.09;100.00
55070;BME280;40967;52.070;8.596;2024-02-14T09:45:30;100485.34;;;9.11;100.00
55070;BME280;40967;52.070;8.596;2024-02-14T09:47:58;100487.50;;;9.14;100.00
55070;BME280;40967;52.070;8.596;2024-02-14T09:50:29;100474.81;;;9.14;100.00
55070;BME280;40967;52.070;8.596;2024-02-14T09:52:57;100487.81;;;9.17;100.00
55070;BME280;40967;52.070;8.596;2024-02-14T09:55:25;100487.31;;;9.21;100.00
55070;BME280;40967;52.070;8.596;2024-02-14T09:57:52;100482.69;;;9.21;100.00
55070;BME280;40967;52.070;8.596;2024-02-14T10:00:21;100481.00;;;9.10;100.00
55070;BME280;40967;52.070;8.596;2024-02-14T10:02:48;100493.00;;;9.19;100.00
55070;BME280;40967;52.070;8.596;2024-02-14T10:05:15;100501.09;;;9.19;100.00
55070;BME280;40967;52.070;8.596;2024-02-14T10:07:44;100492.44;;;9.17;100.00
55070;BME280;40967;52.070;8.596;2024-02-14T10:10:14;100500.84;;;9.21;100.00
55070;BME280;40967;52.070;8.596;2024-02-14T10:12:43;100506.56;;;9.24;100.00
55070;BME280;40967;52.070;8.596;2024-02-14T10:15:13;100509.25;;;9.24;100.00
55070;BME280;40967;52.070;8.596;2024-02-14T10:17:39;100516.59;;;9.29;100.00
55070;BME280;40967;52.070;8.596;2024-02-14T10:20:08;100510.66;;;9.32;100.00
55070;BME280;40967;52.070;8.596;2024-02-14T10:22:35;100483.44;;;9.11;100.00
55070;BME280;40967;52.070;8.596;2024-02-14T10:25:05;100507.97;;;9.37;100.00
55070;BME280;40967;52.070;8.596;2024-02-14T10:27:37;100523.16;;;9.38;100.00
55070;BME280;40967;52.070;8.596;2024-02-14T10:30:05;100518.28;;;9.40;100.00
55070;BME280;40967;52.070;8.596;2024-02-14T10:32:34;100523.16;;;9.38;100.00
55070;BME280;40967;52.070;8.596;2024-02-14T10:35:04;100501.97;;;9.30;100.00
55070;BME280;40967;52.070;8.596;2024-02-14T10:37:34;100507.66;;;9.33;100.00
55070;BME280;40967;52.070;8.596;2024-02-14T10:40:02;100523.75;;;9.50;100.00
55070;BME280;40967;52.070;8.596;2024-02-14T10:42:30;100518.38;;;9.55;100.00
55070;BME280;40967;52.070;8.596;2024-02-14T10:44:57;100519.19;;;9.55;100.00
55070;BME280;40967;52.070;8.596;2024-02-14T10:47:25;100510.75;;;9.47;100.00
55070;BME280;40967;52.070;8.596;2024-02-14T10:49:57;100527.06;;;9.62;100.00
55070;BME280;40967;52.070;8.596;2024-02-14T10:52:28;100527.38;;;9.65;100.00
55070;BME280;40967;52.070;8.596;2024-02-14T10:54:59;100526.28;;;9.66;100.00
55070;BME280;40967;52.070;8.596;2024-02-14T10:57:29;100520.84;;;9.61;100.00
55070;BME280;40967;52.070;8.596;2024-02-14T10:59:57;100527.41;;;9.70;100.00
55070;BME280;40967;52.070;8.596;2024-02-14T11:02:25;100513.56;;;9.67;100.00
55070;BME280;40967;52.070;8.596;2024-02-14T11:04:55;100510.84;;;9.67;100.00
55070;BME280;40967;52.070;8.596;2024-02-14T11:07:23;100529.84;;;9.72;100.00
55070;BME280;40967;52.070;8.596;2024-02-14T11:10:06;100530.94;;;9.76;100.00
55070;BME280;40967;52.070;8.596;2024-02-14T11:12:36;100531.50;;;9.78;100.00
55070;BME280;40967;52.070;8.596;2024-02-14T11:15:09;100528.00;;;9.82;100.00
55070;BME280;40967;52.070;8.596;2024-02-14T11:17:37;100525.84;;;9.89;100.00
55070;BME280;40967;52.070;8.596;2024-02-14T11:20:15;100529.69;;;9.93;100.00
55070;BME280;40967;52.070;8.596;2024-02-14T11:22:50;100519.88;;;9.87;100.00
55070;BME280;40967;52.070;8.596;2024-02-14T11:25:22;100530.75;;;9.97;100.00
55070;BME280;40967;52.070;8.596;2024-02-14T11:27:51;100525.88;;;9.99;100.00
55070;BME280;40967;52.070;8.596;2024-02-14T11:30:28;100536.22;;;10.02;100.00
55070;BME280;40967;52.070;8.596;2024-02-14T11:32:55;100522.59;;;9.92;100.00
55070;BME280;40967;52.070;8.596;2024-02-14T11:35:22;100503.03;;;9.80;100.00
55070;BME280;40967;52.070;8.596;2024-02-14T11:37:52;100533.22;;;9.99;100.00
55070;BME280;40967;52.070;8.596;2024-02-14T11:40:19;100548.13;;;10.01;100.00
55070;BME280;40967;52.070;8.596;2024-02-14T11:42:46;100544.59;;;10.01;100.00
55070;BME280;40967;52.070;8.596;2024-02-14T11:45:14;100543.00;;;10.05;100.00
55070;BME280;40967;52.070;8.596;2024-02-14T11:47:41;100542.47;;;10.08;100.00
55070;BME280;40967;52.070;8.596;2024-02-14T11:50:08;100541.72;;;10.12;100.00
55070;BME280;40967;52.070;8.596;2024-02-14T11:52:36;100544.72;;;10.16;100.00
55070;BME280;40967;52.070;8.596;2024-02-14T11:55:11;100550.41;;;10.19;100.00
55070;BME280;40967;52.070;8.596;2024-02-14T11:57:40;100552.03;;;10.20;100.00
55070;BME280;40967;52.070;8.596;2024-02-14T12:00:22;100554.75;;;10.25;100.00
55070;BME280;40967;52.070;8.596;2024-02-14T12:02:58;100550.44;;;10.29;100.00
55070;BME280;40967;52.070;8.596;2024-02-14T12:05:40;100559.66;;;10.28;100.00
55070;BME280;40967;52.070;8.596;2024-02-14T12:08:08;100556.13;;;10.23;100.00
55070;BME280;40967;52.070;8.596;2024-02-14T12:10:36;100558.28;;;10.21;100.00
55070;BME280;40967;52.070;8.596;2024-02-14T12:13:08;100556.13;;;10.23;100.00
55070;BME280;40967;52.070;8.596;2024-02-14T12:15:45;100533.03;;;10.10;100.00
55070;BME280;40967;52.070;8.596;2024-02-14T12:18:41;100507.72;;;9.90;100.00
55070;BME280;40967;52.070;8.596;2024-02-14T12:21:21;100557.44;;;10.15;100.00
55070;BME280;40967;52.070;8.596;2024-02-14T12:23:58;100530.25;;;10.05;100.00
55070;BME280;40967;52.070;8.596;2024-02-14T12:26:27;100446.84;;;9.56;100.00
55070;BME280;40967;52.070;8.596;2024-02-14T12:28:54;100511.53;;;9.99;100.00
55070;BME280;40967;52.070;8.596;2024-02-14T12:31:26;100531.69;;;10.18;100.00
55070;BME280;40967;52.070;8.596;2024-02-14T12:36:31;100554.75;;;10.30;100.00
55070;BME280;40967;52.070;8.596;2024-02-14T12:38:58;100559.88;;;10.22;100.00
55070;BME280;40967;52.070;8.596;2024-02-14T12:41:28;100485.19;;;9.84;100.00
55070;BME280;40967;52.070;8.596;2024-02-14T12:43:55;100574.84;;;10.35;100.00
55070;BME280;40967;52.070;8.596;2024-02-14T12:46:22;100514.31;;;10.09;100.00
55070;BME280;40967;52.070;8.596;2024-02-14T12:48:50;100496.88;;;9.90;100.00
55070;BME280;40967;52.070;8.596;2024-02-14T12:51:16;100530.03;;;10.12;100.00
55070;BME280;40967;52.070;8.596;2024-02-14T12:53:43;100513.44;;;10.03;100.00
55070;BME280;40967;52.070;8.596;2024-02-14T12:56:10;100561.03;;;10.36;100.00